createdAt,value
2018-09-04T00:00:30.174Z,6.07
2018-09-04T00:02:58.212Z,5.10
2018-09-04T00:05:26.292Z,5.90
2018-09-04T00:07:54.340Z,5.17
2018-09-04T00:10:22.400Z,5.40
2018-09-04T00:12:50.597Z,5.13
2018-09-04T00:15:18.619Z,4.83
2018-09-04T00:17:46.664Z,5.10
2018-09-04T00:20:14.709Z,6.13
2018-09-04T00:22:42.736Z,5.33
2018-09-04T00:25:10.769Z,5.47
2018-09-04T00:27:38.814Z,5.87
2018-09-04T00:30:08.840Z,5.57
2018-09-04T00:32:36.882Z,5.60
2018-09-04T00:35:04.978Z,6.17
2018-09-04T00:37:33.013Z,6.67
2018-09-04T00:40:01.073Z,5.70
2018-09-04T00:42:29.101Z,6.70
2018-09-04T00:44:57.133Z,5.97
2018-09-04T00:47:25.179Z,5.90
2018-09-04T00:49:53.214Z,6.03
2018-09-04T00:52:21.292Z,6.83
2018-09-04T00:54:49.316Z,6.37
2018-09-04T00:57:17.364Z,6.47
2018-09-04T00:59:45.399Z,5.80
2018-09-04T01:02:13.441Z,5.73
2018-09-04T01:04:41.555Z,7.87
2018-09-04T01:07:09.592Z,6.67
2018-09-04T01:09:37.620Z,7.07
2018-09-04T01:12:05.783Z,7.30
2018-09-04T01:14:33.964Z,8.20
2018-09-04T01:17:02.004Z,6.67
2018-09-04T01:19:36.705Z,7.33
2018-09-04T01:22:05.221Z,8.53
2018-09-04T01:24:33.255Z,8.87
2018-09-04T01:27:01.300Z,7.90
2018-09-04T01:29:29.359Z,7.97
2018-09-04T01:31:57.387Z,8.73
2018-09-04T01:34:25.435Z,9.57
2018-09-04T01:36:53.507Z,8.57
2018-09-04T01:39:21.532Z,9.10
2018-09-04T01:41:49.573Z,10.83
2018-09-04T01:44:17.613Z,10.13
2018-09-04T01:46:45.666Z,8.07
2018-09-04T01:49:13.705Z,10.80
2018-09-04T01:51:41.751Z,10.30
2018-09-04T01:54:09.789Z,9.97
2018-09-04T01:56:37.948Z,10.43
2018-09-04T01:59:06.167Z,8.83
2018-09-04T02:01:34.712Z,11.77
2018-09-04T02:04:02.763Z,10.67
2018-09-04T02:06:30.788Z,9.33
2018-09-04T02:08:59.314Z,9.20
2018-09-04T02:11:27.416Z,10.13
2018-09-04T02:13:55.489Z,10.03
2018-09-04T02:16:23.541Z,10.73
2018-09-04T02:18:51.587Z,9.27
2018-09-04T02:21:19.625Z,10.10
2018-09-04T02:23:47.702Z,10.30
2018-09-04T02:26:15.745Z,10.53
2018-09-04T02:28:43.784Z,10.87
2018-09-04T02:31:11.825Z,14.27
2018-09-04T02:33:39.904Z,9.87
2018-09-04T02:36:07.951Z,9.23
2018-09-04T02:38:36.038Z,10.33
2018-09-04T02:41:11.544Z,10.25
2018-09-04T02:43:39.597Z,9.73
2018-09-04T02:46:07.653Z,10.10
2018-09-04T02:48:35.716Z,9.77
2018-09-04T02:51:03.776Z,10.90
2018-09-04T02:53:31.848Z,11.27
2018-09-04T02:55:59.885Z,11.63
2018-09-04T02:58:27.944Z,10.93
2018-09-04T03:00:55.980Z,11.20
2018-09-04T03:03:24.141Z,12.00
2018-09-04T03:05:52.198Z,16.83
2018-09-04T03:08:20.259Z,17.17
2018-09-04T03:10:48.300Z,19.27
2018-09-04T03:13:16.381Z,18.20
2018-09-04T03:15:44.422Z,18.97
2018-09-04T03:18:12.492Z,20.93
2018-09-04T03:20:40.558Z,21.23
2018-09-04T03:23:08.764Z,19.03
2018-09-04T03:25:36.777Z,20.17
2018-09-04T03:28:04.840Z,21.97
2018-09-04T03:30:32.905Z,21.03
2018-09-04T03:33:00.975Z,21.97
2018-09-04T03:35:29.058Z,24.73
2018-09-04T03:37:57.088Z,23.60
2018-09-04T03:40:25.179Z,24.93
2018-09-04T03:42:53.248Z,22.40
2018-09-04T03:45:21.302Z,27.53
2018-09-04T03:47:49.370Z,27.70
2018-09-04T03:50:17.437Z,27.48
2018-09-04T03:52:45.497Z,31.00
2018-09-04T03:55:13.604Z,30.90
2018-09-04T03:57:41.700Z,30.50
2018-09-04T04:00:09.783Z,31.87
2018-09-04T04:02:37.858Z,31.30
2018-09-04T04:05:06.012Z,25.70
2018-09-04T04:07:34.082Z,29.37
2018-09-04T04:10:02.150Z,25.93
2018-09-04T04:12:30.178Z,27.57
2018-09-04T04:14:58.233Z,26.97
2018-09-04T04:17:26.276Z,25.47
2018-09-04T04:19:54.325Z,27.00
2018-09-04T04:22:22.404Z,31.02
2018-09-04T04:24:50.451Z,28.53
2018-09-04T04:27:18.489Z,26.30
2018-09-04T04:29:46.541Z,27.00
2018-09-04T04:32:14.945Z,29.23
2018-09-04T04:34:42.981Z,26.17
2018-09-04T04:37:11.044Z,30.87
2018-09-04T04:39:39.064Z,27.37
2018-09-04T04:42:07.104Z,28.03
2018-09-04T04:44:35.148Z,28.03
2018-09-04T04:47:03.338Z,25.97
2018-09-04T04:49:31.368Z,24.43
2018-09-04T04:51:59.396Z,23.57
2018-09-04T04:54:27.440Z,23.30
2018-09-04T04:56:55.473Z,23.30
2018-09-04T04:59:23.513Z,25.87
2018-09-04T05:01:51.549Z,31.20
2018-09-04T05:04:19.584Z,28.33
2018-09-04T05:06:47.612Z,27.20
2018-09-04T05:09:15.653Z,31.15
2018-09-04T05:11:43.697Z,31.30
2018-09-04T05:14:11.760Z,24.95
2018-09-04T05:16:39.798Z,26.37
2018-09-04T05:19:07.853Z,26.57
2018-09-04T05:21:35.893Z,38.78
2018-09-04T05:24:04.912Z,26.10
2018-09-04T05:26:32.932Z,25.57
2018-09-04T05:29:00.972Z,25.00
2018-09-04T05:31:32.329Z,25.20
2018-09-04T05:34:00.378Z,23.47
2018-09-04T05:36:28.584Z,25.70
2018-09-04T05:38:56.605Z,26.73
2018-09-04T05:41:24.640Z,26.13
2018-09-04T05:43:55.399Z,23.87
2018-09-04T05:46:30.637Z,23.47
2018-09-04T05:48:59.020Z,19.50
2018-09-04T05:51:27.052Z,24.47
2018-09-04T05:53:55.205Z,21.47
2018-09-04T05:56:23.252Z,23.90
2018-09-04T05:58:51.280Z,20.20
2018-09-04T06:01:19.309Z,30.53
2018-09-04T06:03:47.450Z,23.10
2018-09-04T06:06:15.487Z,23.40
2018-09-04T06:08:43.504Z,23.23
2018-09-04T06:11:11.679Z,24.15
2018-09-04T06:13:39.756Z,25.10
2018-09-04T06:16:07.744Z,37.60
2018-09-04T06:18:35.788Z,39.27
2018-09-04T06:21:04.851Z,29.20
2018-09-04T06:23:32.889Z,33.60
2018-09-04T06:26:00.927Z,41.30
2018-09-04T06:28:29.001Z,47.77
2018-09-04T06:33:31.333Z,33.70
2018-09-04T06:35:59.317Z,34.25
2018-09-04T06:38:27.351Z,43.87
2018-09-04T06:40:55.388Z,39.03
2018-09-04T06:43:23.444Z,38.60
2018-09-04T06:45:51.498Z,35.67
2018-09-04T06:48:19.534Z,37.20
2018-09-04T06:50:47.793Z,31.13
2018-09-04T06:53:15.832Z,31.07
2018-09-04T06:55:43.866Z,35.50
2018-09-04T06:58:11.912Z,35.50
2018-09-04T07:00:40.020Z,36.90
2018-09-04T07:03:08.072Z,31.97
2018-09-04T07:05:42.236Z,34.13
2018-09-04T07:08:10.301Z,38.65
2018-09-04T07:10:38.341Z,41.53
2018-09-04T07:13:06.389Z,43.30
2018-09-04T07:15:34.470Z,46.73
2018-09-04T07:18:02.532Z,52.20
2018-09-04T07:20:30.852Z,52.90
2018-09-04T07:22:58.962Z,52.77
2018-09-04T07:25:27.012Z,47.63
2018-09-04T07:27:55.060Z,43.77
2018-09-04T07:30:23.169Z,53.23
2018-09-04T07:32:51.205Z,47.87
2018-09-04T07:35:19.242Z,45.93
2018-09-04T07:37:47.312Z,52.80
2018-09-04T07:40:15.405Z,50.92
2018-09-04T07:42:43.447Z,56.03
2018-09-04T07:45:11.500Z,55.73
2018-09-04T07:47:39.573Z,51.57
2018-09-04T07:50:08.198Z,54.67
2018-09-04T07:52:48.566Z,48.77
2018-09-04T07:55:16.601Z,48.07
2018-09-04T07:57:44.650Z,49.70
2018-09-04T08:00:12.676Z,44.27
2018-09-04T08:02:40.880Z,50.10
2018-09-04T08:05:08.918Z,45.80
2018-09-04T08:07:36.948Z,47.13
2018-09-04T08:10:05.190Z,46.60
2018-09-04T08:12:33.184Z,45.70
2018-09-04T08:15:01.224Z,46.23
2018-09-04T08:17:29.280Z,51.13
2018-09-04T08:19:57.341Z,49.47
2018-09-04T08:22:24.444Z,43.40
2018-09-04T08:24:52.469Z,47.80
2018-09-04T08:27:20.663Z,43.47
2018-09-04T08:29:48.698Z,49.33
2018-09-04T08:32:16.740Z,49.75
2018-09-04T08:34:44.825Z,48.43
2018-09-04T08:37:12.873Z,47.83
2018-09-04T08:39:40.981Z,46.80
2018-09-04T08:42:09.045Z,45.03
2018-09-04T08:44:37.092Z,49.57
2018-09-04T08:47:05.271Z,49.17
2018-09-04T08:49:33.289Z,47.70
2018-09-04T08:52:01.335Z,50.47
2018-09-04T08:54:29.405Z,45.53
2018-09-04T08:56:58.369Z,48.40
2018-09-04T08:59:26.402Z,46.43
2018-09-04T09:01:54.425Z,42.50
2018-09-04T09:04:22.541Z,44.75
2018-09-04T09:06:50.598Z,45.43
2018-09-04T09:09:18.625Z,42.43
2018-09-04T09:11:46.663Z,44.53
2018-09-04T09:14:14.700Z,39.63
2018-09-04T09:16:42.774Z,44.93
2018-09-04T09:19:10.789Z,44.17
2018-09-04T09:21:38.831Z,44.77
2018-09-04T09:24:07.060Z,39.35
2018-09-04T09:26:35.096Z,42.93
2018-09-04T09:29:03.173Z,47.03
2018-09-04T09:31:31.213Z,41.60
2018-09-04T09:33:59.249Z,41.13
2018-09-04T09:36:27.361Z,39.80
2018-09-04T09:38:55.343Z,38.53
2018-09-04T09:41:23.410Z,39.87
2018-09-04T09:43:51.454Z,34.00
2018-09-04T09:46:19.530Z,32.38
2018-09-04T09:48:47.508Z,34.50
2018-09-04T09:51:15.560Z,35.87
2018-09-04T09:53:43.642Z,35.57
2018-09-04T09:56:12.064Z,35.03
2018-09-04T09:58:40.719Z,33.80
2018-09-04T10:01:14.117Z,30.30
2018-09-04T10:03:47.470Z,36.73
2018-09-04T10:06:15.503Z,33.35
2018-09-04T10:08:43.536Z,34.43
2018-09-04T10:11:11.645Z,36.07
2018-09-04T10:13:39.701Z,33.67
2018-09-04T10:16:07.712Z,32.10
2018-09-04T10:18:35.768Z,29.53
2018-09-04T10:21:03.804Z,29.70
2018-09-04T10:23:32.118Z,32.60
2018-09-04T10:26:00.163Z,35.73
2018-09-04T10:28:28.192Z,33.47
2018-09-04T10:30:56.234Z,38.67
2018-09-04T10:33:24.289Z,34.83
2018-09-04T10:35:52.308Z,31.13
2018-09-04T10:38:24.198Z,32.17
2018-09-04T10:40:53.680Z,33.30
2018-09-04T10:43:21.764Z,32.63
2018-09-04T10:45:55.224Z,32.73
2018-09-04T10:48:24.217Z,33.30
2018-09-04T10:50:52.366Z,28.30
2018-09-04T10:53:20.616Z,26.00
2018-09-04T10:55:48.875Z,26.47
2018-09-04T10:58:16.813Z,25.57
2018-09-04T11:00:45.009Z,27.97
2018-09-04T11:03:13.049Z,27.57
2018-09-04T11:05:41.252Z,27.87
2018-09-04T11:08:09.316Z,23.27
2018-09-04T11:10:37.353Z,24.07
2018-09-04T11:13:05.747Z,25.65
2018-09-04T11:15:33.831Z,24.27
2018-09-04T11:18:01.830Z,25.30
2018-09-04T11:20:29.900Z,23.00
2018-09-04T11:22:57.935Z,23.73
2018-09-04T11:25:25.976Z,21.57
2018-09-04T11:27:54.036Z,24.33
2018-09-04T11:30:22.116Z,23.32
2018-09-04T11:32:50.162Z,23.40
2018-09-04T11:35:18.223Z,21.62
2018-09-04T11:37:46.278Z,21.83
2018-09-04T11:40:14.344Z,23.95
2018-09-04T11:42:42.400Z,24.57
2018-09-04T11:45:10.732Z,22.47
2018-09-04T11:47:40.485Z,22.30
2018-09-04T11:50:08.572Z,24.03
2018-09-04T11:52:36.753Z,23.67
2018-09-04T11:55:05.080Z,24.70
2018-09-04T11:57:33.335Z,23.50
2018-09-04T12:00:01.361Z,25.27
2018-09-04T12:02:33.908Z,24.10
2018-09-04T12:05:01.978Z,23.67
2018-09-04T12:07:30.040Z,23.63
2018-09-04T12:09:58.094Z,21.20
2018-09-04T12:12:30.628Z,22.77
2018-09-04T12:14:59.317Z,22.63
2018-09-04T12:17:27.409Z,19.53
2018-09-04T12:20:05.715Z,22.37
2018-09-04T12:22:33.761Z,21.53
2018-09-04T12:25:01.797Z,19.10
2018-09-04T12:27:29.869Z,19.30
2018-09-04T12:29:57.933Z,20.63
2018-09-04T12:32:25.960Z,19.90
2018-09-04T12:34:54.175Z,18.77
2018-09-04T12:37:22.212Z,20.23
2018-09-04T12:39:55.640Z,20.47
2018-09-04T12:42:23.718Z,17.37
2018-09-04T12:44:51.721Z,18.13
2018-09-04T12:47:19.751Z,20.20
2018-09-04T12:49:47.777Z,18.00
2018-09-04T12:52:15.857Z,18.10
2018-09-04T12:54:43.918Z,18.57
2018-09-04T12:57:11.926Z,18.63
2018-09-04T12:59:39.985Z,19.77
2018-09-04T13:02:07.985Z,18.20
2018-09-04T13:04:36.076Z,19.90
2018-09-04T13:07:04.855Z,17.40
2018-09-04T13:09:32.890Z,18.03
2018-09-04T13:12:00.932Z,16.70
2018-09-04T13:14:28.983Z,16.87
2018-09-04T13:17:00.982Z,15.80
2018-09-04T13:19:29.008Z,16.30
2018-09-04T13:21:57.063Z,18.00
2018-09-04T13:24:25.353Z,19.50
2018-09-04T13:26:53.377Z,16.50
2018-09-04T13:29:21.426Z,16.90
2018-09-04T13:31:49.570Z,15.90
2018-09-04T13:34:17.665Z,17.20
2018-09-04T13:36:45.664Z,17.23
2018-09-04T13:39:13.760Z,15.77
2018-09-04T13:41:41.956Z,15.77
2018-09-04T13:44:09.992Z,20.70
2018-09-04T13:46:38.016Z,20.73
2018-09-04T13:49:06.585Z,21.60
2018-09-04T13:51:34.724Z,21.80
2018-09-04T13:54:02.919Z,20.03
2018-09-04T13:56:30.933Z,21.13
2018-09-04T13:58:58.960Z,20.67
2018-09-04T14:01:26.988Z,20.17
2018-09-04T14:03:55.036Z,20.70
2018-09-04T14:06:23.157Z,17.80
2018-09-04T14:08:51.191Z,18.30
2018-09-04T14:11:19.250Z,20.17
2018-09-04T14:13:47.274Z,26.03
2018-09-04T14:16:17.110Z,17.62
2018-09-04T14:18:45.136Z,16.57
2018-09-04T14:21:13.192Z,16.82
2018-09-04T14:23:41.268Z,16.37
2018-09-04T14:26:09.332Z,17.53
2018-09-04T14:28:40.967Z,17.53
2018-09-04T14:31:05.619Z,16.53
2018-09-04T14:33:40.211Z,18.20
2018-09-04T14:36:08.273Z,18.10
2018-09-04T14:38:36.316Z,17.97
2018-09-04T14:41:05.441Z,17.65
2018-09-04T14:43:33.501Z,17.53
2018-09-04T14:46:01.620Z,20.63
2018-09-04T14:48:29.663Z,19.47
2018-09-04T14:50:57.710Z,18.43
2018-09-04T14:53:25.892Z,19.50
2018-09-04T14:55:53.928Z,20.53
2018-09-04T14:58:23.214Z,19.10
2018-09-04T15:00:51.255Z,21.23
2018-09-04T15:03:26.033Z,19.20
2018-09-04T15:05:54.092Z,18.13
2018-09-04T15:08:22.143Z,20.57
2018-09-04T15:10:50.186Z,19.53
2018-09-04T15:13:18.241Z,19.50
2018-09-04T15:15:46.288Z,21.03
2018-09-04T15:18:14.433Z,19.80
2018-09-04T15:20:42.505Z,22.47
2018-09-04T15:23:10.544Z,23.13
2018-09-04T15:25:38.588Z,22.23
2018-09-04T15:28:06.620Z,25.27
2018-09-04T15:30:34.652Z,23.13
2018-09-04T15:33:02.887Z,26.50
2018-09-04T15:35:30.932Z,22.83
2018-09-04T15:37:58.973Z,22.40
2018-09-04T15:40:27.005Z,21.87
2018-09-04T15:42:55.130Z,21.17
2018-09-04T15:45:23.181Z,21.68
2018-09-04T15:47:51.220Z,23.10
2018-09-04T15:50:19.249Z,21.50
2018-09-04T15:52:47.280Z,19.13
2018-09-04T15:55:15.320Z,21.50
2018-09-04T15:57:43.349Z,20.87
2018-09-04T16:00:11.411Z,21.07
2018-09-04T16:02:39.449Z,20.20
2018-09-04T16:05:07.484Z,19.10
2018-09-04T16:07:35.518Z,19.13
2018-09-04T16:10:03.825Z,19.77
2018-09-04T16:12:34.564Z,21.90
2018-09-04T16:17:36.895Z,19.97
2018-09-04T16:20:05.276Z,20.87
2018-09-04T16:22:33.308Z,18.60
2018-09-04T16:25:01.343Z,20.97
2018-09-04T16:27:29.388Z,17.87
2018-09-04T16:29:57.448Z,20.47
2018-09-04T16:32:25.494Z,18.50
2018-09-04T16:34:53.655Z,18.47
2018-09-04T16:37:21.596Z,17.57
2018-09-04T16:39:56.069Z,17.50
2018-09-04T16:42:24.111Z,19.60
2018-09-04T16:44:52.148Z,17.83
2018-09-04T16:47:20.191Z,18.95
2018-09-04T16:49:48.219Z,16.07
2018-09-04T16:52:16.272Z,20.50
2018-09-04T16:54:44.566Z,19.63
2018-09-04T16:57:12.588Z,17.50
2018-09-04T16:59:40.653Z,17.43
2018-09-04T17:02:08.681Z,18.23
2018-09-04T17:04:36.731Z,17.33
2018-09-04T17:07:04.903Z,18.00
2018-09-04T17:09:33.010Z,18.40
2018-09-04T17:12:01.048Z,18.23
2018-09-04T17:14:29.270Z,18.10
2018-09-04T17:16:57.321Z,19.13
2018-09-04T17:19:25.349Z,18.23
2018-09-04T17:21:53.568Z,17.33
2018-09-04T17:24:21.685Z,18.60
2018-09-04T17:26:49.717Z,19.70
2018-09-04T17:29:17.785Z,23.18
2018-09-04T17:31:45.820Z,20.87
2018-09-04T17:34:13.851Z,22.80
2018-09-04T17:36:41.960Z,21.43
2018-09-04T17:39:10.104Z,20.27
2018-09-04T17:41:38.180Z,20.23
2018-09-04T17:44:06.498Z,21.00
2018-09-04T17:46:34.548Z,21.17
2018-09-04T17:49:02.603Z,20.97
2018-09-04T17:51:30.660Z,20.70
2018-09-04T17:53:58.732Z,21.60
2018-09-04T17:56:26.812Z,21.60
2018-09-04T17:58:55.104Z,21.40
2018-09-04T18:01:23.229Z,22.47
2018-09-04T18:03:51.377Z,22.62
2018-09-04T18:06:19.424Z,24.23
2018-09-04T18:08:47.484Z,23.47
2018-09-04T18:11:15.567Z,25.65
2018-09-04T18:13:43.597Z,23.17
2018-09-04T18:16:11.636Z,23.60
2018-09-04T18:18:39.676Z,22.23
2018-09-04T18:21:07.740Z,27.43
2018-09-04T18:23:35.803Z,27.47
2018-09-04T18:26:04.869Z,27.00
2018-09-04T18:28:32.979Z,25.00
2018-09-04T18:31:01.075Z,23.07
2018-09-04T18:33:33.801Z,25.20
2018-09-04T18:36:01.923Z,30.47
2018-09-04T18:38:29.935Z,30.40
2018-09-04T18:40:57.989Z,28.23
2018-09-04T18:43:26.038Z,27.00
2018-09-04T18:45:55.362Z,24.70
2018-09-04T18:48:23.459Z,22.30
2018-09-04T18:50:51.539Z,20.97
2018-09-04T18:53:19.585Z,21.87
2018-09-04T18:55:47.671Z,21.13
2018-09-04T18:58:15.729Z,21.93
2018-09-04T19:00:44.138Z,21.65
2018-09-04T19:03:12.182Z,24.90
2018-09-04T19:05:40.249Z,23.87
2018-09-04T19:08:08.280Z,22.87
2018-09-04T19:10:36.337Z,22.17
2018-09-04T19:13:04.981Z,23.20
2018-09-04T19:15:33.004Z,23.53
2018-09-04T19:18:01.048Z,24.30
2018-09-04T19:20:29.085Z,24.93
2018-09-04T19:22:57.125Z,24.57
2018-09-04T19:25:25.169Z,24.70
2018-09-04T19:27:53.856Z,24.10
2018-09-04T19:30:21.911Z,23.45
2018-09-04T19:32:49.964Z,26.87
2018-09-04T19:35:18.025Z,24.77
2018-09-04T19:37:46.093Z,25.60
2018-09-04T19:40:20.808Z,26.37
2018-09-04T19:42:48.889Z,24.87
2018-09-04T19:45:16.946Z,27.65
2018-09-04T19:47:44.989Z,27.87
2018-09-04T19:50:13.204Z,25.75
2018-09-04T19:52:41.247Z,24.97
2018-09-04T19:55:10.424Z,25.97
2018-09-04T19:57:38.627Z,25.97
2018-09-04T20:00:07.552Z,27.60
2018-09-04T20:02:35.612Z,25.30
2018-09-04T20:05:03.755Z,23.13
2018-09-04T20:07:31.811Z,25.43
2018-09-04T20:09:59.829Z,25.90
2018-09-04T20:12:27.905Z,46.67
2018-09-04T20:14:55.952Z,47.30
2018-09-04T20:17:24.001Z,39.70
2018-09-04T20:19:52.079Z,43.73
2018-09-04T20:22:20.113Z,51.68
2018-09-04T20:24:48.186Z,47.17
2018-09-04T20:27:16.356Z,40.03
2018-09-04T20:29:44.404Z,35.60
2018-09-04T20:32:12.449Z,30.30
2018-09-04T20:34:40.556Z,28.73
2018-09-04T20:37:08.595Z,27.70
2018-09-04T20:39:36.667Z,27.07
2018-09-04T20:42:04.984Z,25.70
2018-09-04T20:44:33.013Z,24.47
2018-09-04T20:47:01.060Z,26.47
2018-09-04T20:49:29.118Z,27.60
2018-09-04T20:51:57.225Z,26.10
2018-09-04T20:54:25.298Z,27.07
2018-09-04T20:57:01.200Z,28.50
2018-09-04T20:59:40.577Z,27.90
2018-09-04T21:02:19.968Z,25.47
2018-09-04T21:04:59.364Z,27.73
2018-09-04T21:09:41.388Z,25.10
2018-09-04T21:12:09.804Z,26.90
2018-09-04T21:14:37.996Z,27.50
2018-09-04T21:17:06.144Z,25.07
2018-09-04T21:19:34.215Z,25.30
2018-09-04T21:22:02.301Z,22.10
2018-09-04T21:24:30.368Z,24.53
2018-09-04T21:26:58.435Z,26.00
2018-09-04T21:29:26.472Z,25.07
2018-09-04T21:31:54.521Z,25.33
2018-09-04T21:34:22.602Z,25.40
2018-09-04T21:36:50.648Z,23.67
2018-09-04T21:39:18.680Z,23.10
2018-09-04T21:41:46.731Z,26.07
2018-09-04T21:44:14.781Z,24.77
2018-09-04T21:46:42.985Z,25.07
2018-09-04T21:49:11.018Z,23.97
2018-09-04T21:51:39.044Z,25.60
2018-09-04T21:54:07.164Z,25.50
2018-09-04T21:56:35.190Z,24.40
2018-09-04T21:59:03.600Z,25.43
2018-09-04T22:01:31.652Z,24.07
2018-09-04T22:03:59.704Z,24.83
2018-09-04T22:06:27.745Z,27.40
2018-09-04T22:08:55.802Z,29.77
2018-09-04T22:11:23.853Z,27.80
2018-09-04T22:13:52.045Z,26.47
2018-09-04T22:16:20.079Z,28.40
2018-09-04T22:18:48.168Z,26.97
2018-09-04T22:21:16.199Z,24.40
2018-09-04T22:23:44.393Z,28.67
2018-09-04T22:26:12.423Z,28.37
2018-09-04T22:28:40.444Z,29.27
2018-09-04T22:31:08.643Z,28.73
2018-09-04T22:33:36.678Z,32.77
2018-09-04T22:36:06.069Z,28.17
2018-09-04T22:38:34.276Z,27.30
2018-09-04T22:41:02.321Z,30.33
2018-09-04T22:43:30.349Z,28.40
2018-09-04T22:45:58.407Z,31.57
2018-09-04T22:48:26.440Z,28.77
2018-09-04T22:50:59.905Z,29.30
2018-09-04T22:53:27.949Z,27.60
2018-09-04T22:55:55.968Z,31.23
2018-09-04T22:58:24.012Z,26.53
2018-09-04T23:00:52.067Z,27.80
2018-09-04T23:03:20.132Z,29.17
2018-09-04T23:05:48.179Z,29.17
2018-09-04T23:08:16.209Z,26.60
2018-09-04T23:10:44.276Z,27.63
2018-09-04T23:13:12.321Z,29.25
2018-09-04T23:15:43.637Z,28.73
2018-09-04T23:18:13.667Z,29.13
2018-09-04T23:20:41.830Z,30.07
2018-09-04T23:23:10.095Z,30.50
2018-09-04T23:25:38.166Z,27.77
2018-09-04T23:28:06.384Z,28.30
2018-09-04T23:30:34.455Z,27.43
2018-09-04T23:33:02.499Z,27.93
2018-09-04T23:35:30.540Z,31.63
2018-09-04T23:37:58.733Z,30.53
2018-09-04T23:40:26.767Z,29.57
2018-09-04T23:42:54.805Z,30.80
2018-09-04T23:45:22.847Z,28.00
2018-09-04T23:47:50.885Z,26.77
2018-09-04T23:50:18.926Z,27.85
2018-09-04T23:52:47.526Z,31.70
2018-09-04T23:55:15.520Z,29.50
2018-09-04T23:57:43.548Z,31.27
